Time;durP1;ratioP1;P1;durP2;ratioP2;P2;SDS_P1;SDS_P2;PMS_P1;PMS_P2;Temp;Humidity;BMP_temperature;BMP_pressure;BME280_temperature;BME280_humidity;BME280_pressure;Samples;Min_cycle;Max_cycle;Signal;HPM_P1;HPM_P2
2023/12/27 00:01:50;;;;;;;16.80;4.15;;;4.20;99.90;;;;;;4988363;28;20036;-62
2023/12/27 00:04:17;;;;;;;15.55;3.65;;;4.20;99.90;;;;;;4999217;28;20088;-62
2023/12/27 00:06:43;;;;;;;12.82;4.22;;;4.10;99.90;;;;;;4994283;28;20053;-62
2023/12/27 00:09:09;;;;;;;13.13;3.75;;;4.00;99.90;;;;;;4995735;28;20064;-62
2023/12/27 00:11:35;;;;;;;15.25;4.28;;;4.00;99.90;;;;;;4998051;28;20717;-62
2023/12/27 00:14:01;;;;;;;16.40;4.53;;;3.90;99.90;;;;;;5000283;28;20042;-62
2023/12/27 00:16:27;;;;;;;14.73;4.50;;;4.50;99.90;;;;;;4999195;28;20022;-62
2023/12/27 00:18:54;;;;;;;12.88;4.20;;;3.80;99.90;;;;;;4998190;28;20036;-62
2023/12/27 00:21:19;;;;;;;16.15;4.50;;;3.90;99.90;;;;;;4999587;28;20022;-62
2023/12/27 00:23:45;;;;;;;11.70;3.92;;;3.80;99.90;;;;;;4999221;28;20026;-63
2023/12/27 00:26:11;;;;;;;13.05;4.53;;;3.90;99.90;;;;;;4994849;28;20057;-62
2023/12/27 00:28:36;;;;;;;17.27;4.03;;;3.90;99.90;;;;;;4998685;28;20063;-62
2023/12/27 00:31:02;;;;;;;21.15;5.45;;;3.80;99.90;;;;;;4995172;28;20034;-63
2023/12/27 00:33:28;;;;;;;13.38;3.95;;;3.80;99.90;;;;;;4997583;28;20022;-62
2023/12/27 00:35:53;;;;;;;15.73;4.40;;;3.80;99.90;;;;;;5001397;28;20123;-63
2023/12/27 00:38:19;;;;;;;14.35;3.95;;;4.00;99.90;;;;;;4996885;28;20023;-63
2023/12/27 00:40:45;;;;;;;12.32;3.83;;;4.10;99.90;;;;;;5001684;28;20034;-62
2023/12/27 00:43:10;;;;;;;18.33;4.47;;;4.10;99.90;;;;;;4994686;28;20046;-62
2023/12/27 00:45:36;;;;;;;14.88;3.83;;;4.20;99.90;;;;;;4996866;28;20030;-63
2023/12/27 00:48:01;;;;;;;14.68;3.78;;;4.30;99.90;;;;;;4996863;28;20449;-62
2023/12/27 00:50:27;;;;;;;20.77;4.03;;;4.40;99.90;;;;;;4996282;28;20106;-62
2023/12/27 00:52:53;;;;;;;9.90;3.60;;;4.50;99.90;;;;;;4999550;28;20053;-62
2023/12/27 00:55:18;;;;;;;19.40;3.95;;;4.50;99.90;;;;;;4995499;28;20444;-63
2023/12/27 00:57:44;;;;;;;12.35;3.38;;;4.60;99.90;;;;;;4998943;28;20149;-63
2023/12/27 01:00:10;;;;;;;17.35;3.92;;;4.60;99.90;;;;;;4997077;28;20041;-62
2023/12/27 01:02:36;;;;;;;17.67;3.80;;;4.50;99.90;;;;;;4999703;28;20481;-63
2023/12/27 01:05:02;;;;;;;13.70;3.97;;;4.40;99.90;;;;;;4998990;28;20050;-63
2023/12/27 01:07:27;;;;;;;16.35;4.15;;;4.30;99.90;;;;;;4996484;28;20018;-62
2023/12/27 01:09:54;;;;;;;14.07;4.22;;;4.20;99.90;;;;;;4992625;28;20022;-62
2023/12/27 01:12:19;;;;;;;12.85;4.05;;;4.20;99.90;;;;;;5001065;28;20097;-63
2023/12/27 01:14:45;;;;;;;14.18;4.30;;;4.10;99.90;;;;;;4994518;28;20038;-63
2023/12/27 01:17:10;;;;;;;12.45;3.92;;;4.00;99.90;;;;;;5003923;28;20040;-63
2023/12/27 01:19:36;;;;;;;18.80;3.97;;;3.80;99.90;;;;;;4998274;28;20473;-63
2023/12/27 01:22:02;;;;;;;15.35;4.25;;;3.60;99.90;;;;;;4996284;28;20042;-63
2023/12/27 01:24:27;;;;;;;14.20;4.15;;;3.50;99.90;;;;;;4993020;28;20037;-63
2023/12/27 01:26:53;;;;;;;15.25;4.50;;;3.50;99.90;;;;;;4993292;28;20092;-63
2023/12/27 01:29:18;;;;;;;16.90;5.28;;;3.70;99.90;;;;;;4998050;28;20033;-63
2023/12/27 01:31:44;;;;;;;21.08;5.00;;;3.80;99.90;;;;;;4992023;28;20030;-61
2023/12/27 01:34:09;;;;;;;17.23;5.45;;;3.80;99.90;;;;;;5000376;28;20034;-61
2023/12/27 01:36:35;;;;;;;24.88;4.97;;;3.70;99.90;;;;;;5000030;28;20545;-62
2023/12/27 01:39:01;;;;;;;16.80;5.15;;;3.60;99.90;;;;;;4992326;28;20026;-61
2023/12/27 01:41:26;;;;;;;13.70;4.65;;;3.50;99.90;;;;;;4997306;28;20454;-61
2023/12/27 01:43:52;;;;;;;18.92;4.80;;;3.40;99.90;;;;;;4995568;28;20452;-61
2023/12/27 01:46:18;;;;;;;17.08;5.10;;;3.30;99.90;;;;;;4987660;28;20022;-61
2023/12/27 01:48:44;;;;;;;16.45;5.28;;;3.30;99.90;;;;;;5000576;28;20034;-62
2023/12/27 01:51:12;;;;;;;16.40;5.13;;;3.30;99.90;;;;;;4998703;28;20397;-61
2023/12/27 01:53:38;;;;;;;24.30;6.85;;;3.20;99.90;;;;;;4998215;28;20373;-61
2023/12/27 01:56:04;;;;;;;22.90;6.40;;;3.10;99.90;;;;;;4996521;28;20378;-61
2023/12/27 01:58:30;;;;;;;18.27;5.68;;;3.20;99.90;;;;;;4998093;28;20027;-61
2023/12/27 02:01:08;;;;;;;18.67;5.82;;;3.40;99.90;;;;;;5107799;27;20966;-62
2023/12/27 02:03:33;;;;;;;17.83;6.07;;;3.50;99.90;;;;;;5092863;28;20020;-63
2023/12/27 02:06:00;;;;;;;24.13;5.70;;;3.60;99.90;;;;;;5090963;28;20028;-62
2023/12/27 02:08:27;;;;;;;20.45;6.20;;;3.60;99.90;;;;;;5083322;28;20027;-63
2023/12/27 02:10:52;;;;;;;21.42;5.82;;;3.70;99.90;;;;;;5081773;28;20035;-63
2023/12/27 02:13:19;;;;;;;18.42;5.80;;;3.60;99.90;;;;;;5075527;28;20111;-63
2023/12/27 02:15:46;;;;;;;23.20;6.60;;;3.70;99.90;;;;;;5078501;28;20020;-63
2023/12/27 02:18:12;;;;;;;28.80;6.45;;;3.80;99.90;;;;;;5085562;28;20031;-62
2023/12/27 02:20:40;;;;;;;21.17;6.90;;;3.80;99.90;;;;;;5088538;28;20065;-63
2023/12/27 02:23:07;;;;;;;22.42;6.90;;;3.90;99.90;;;;;;5088646;28;20463;-63
2023/12/27 02:25:34;;;;;;;20.45;6.15;;;3.90;99.90;;;;;;5088417;28;20669;-63
2023/12/27 02:27:59;;;;;;;18.10;6.55;;;3.90;99.90;;;;;;5087246;28;20459;-63
2023/12/27 02:30:25;;;;;;;17.33;5.97;;;3.90;99.90;;;;;;5086508;28;20115;-61
2023/12/27 02:32:51;;;;;;;25.77;8.27;;;3.90;99.90;;;;;;5087138;28;20020;-63
2023/12/27 02:35:18;;;;;;;24.85;7.38;;;3.90;99.90;;;;;;5088372;28;20032;-63
2023/12/27 02:37:43;;;;;;;23.33;7.35;;;3.90;99.90;;;;;;5089067;28;20016;-63
2023/12/27 02:40:10;;;;;;;24.60;7.78;;;3.80;99.90;;;;;;5088085;28;20039;-63
2023/12/27 02:42:37;;;;;;;30.23;8.43;;;3.80;99.90;;;;;;5088544;28;20516;-63
2023/12/27 02:45:03;;;;;;;32.00;8.80;;;3.90;99.90;;;;;;5087059;28;20024;-63
2023/12/27 02:47:28;;;;;;;21.52;7.18;;;3.90;99.90;;;;;;5089209;28;20070;-63
2023/12/27 02:49:54;;;;;;;25.65;7.90;;;4.00;99.90;;;;;;5086993;28;20471;-63
2023/12/27 02:52:20;;;;;;;25.90;7.60;;;4.10;99.90;;;;;;5087637;28;20032;-64
2023/12/27 02:54:45;;;;;;;27.50;8.93;;;4.20;99.90;;;;;;5082543;28;20036;-63
2023/12/27 02:57:12;;;;;;;25.58;8.07;;;4.30;99.90;;;;;;5087554;28;20106;-63
2023/12/27 02:59:37;;;;;;;23.75;8.02;;;4.20;99.90;;;;;;5084267;28;20036;-63
2023/12/27 03:02:03;;;;;;;30.77;8.35;;;4.30;99.90;;;;;;5088167;28;20023;-63
2023/12/27 03:04:28;;;;;;;29.80;8.10;;;4.30;99.90;;;;;;5087377;28;20017;-63
2023/12/27 03:06:54;;;;;;;31.88;9.15;;;4.30;99.90;;;;;;5086550;28;20032;-63
2023/12/27 03:09:20;;;;;;;21.30;8.48;;;4.30;99.90;;;;;;5087040;28;20025;-63
2023/12/27 03:11:45;;;;;;;21.40;8.55;;;4.40;99.90;;;;;;5078558;28;20029;-64
2023/12/27 03:14:11;;;;;;;34.30;9.90;;;4.40;99.90;;;;;;5073113;28;20077;-63
2023/12/27 03:16:36;;;;;;;20.75;8.32;;;4.40;99.90;;;;;;5074052;28;20459;-63
2023/12/27 03:19:02;;;;;;;29.10;8.38;;;4.30;99.90;;;;;;5074631;28;20025;-63
2023/12/27 03:21:28;;;;;;;26.00;8.77;;;4.30;99.90;;;;;;5075267;28;20013;-63
2023/12/27 03:23:53;;;;;;;30.05;9.18;;;4.40;99.90;;;;;;5073902;28;20020;-64
2023/12/27 03:26:19;;;;;;;35.65;9.90;;;4.40;99.90;;;;;;5072080;28;20028;-63
2023/12/27 03:28:45;;;;;;;28.20;8.85;;;4.40;99.90;;;;;;5072275;28;20498;-63
2023/12/27 03:31:12;;;;;;;33.15;9.60;;;4.40;99.90;;;;;;5068786;28;20012;-63
2023/12/27 03:33:37;;;;;;;27.50;8.90;;;4.40;99.90;;;;;;5073986;28;20485;-63
2023/12/27 03:36:03;;;;;;;33.10;9.75;;;4.20;99.90;;;;;;5074455;28;20012;-64
2023/12/27 03:38:29;;;;;;;31.83;9.63;;;4.20;99.90;;;;;;5073804;28;20379;-63
2023/12/27 03:40:54;;;;;;;30.10;10.15;;;4.10;99.90;;;;;;5074254;28;20056;-63
2023/12/27 03:43:20;;;;;;;31.02;10.50;;;4.00;99.90;;;;;;5074493;28;20025;-63
2023/12/27 03:45:46;;;;;;;36.60;9.85;;;3.90;99.90;;;;;;5073584;28;20025;-64
2023/12/27 03:48:11;;;;;;;34.85;10.18;;;3.90;99.90;;;;;;5074300;28;20021;-63
2023/12/27 03:50:37;;;;;;;29.30;9.73;;;3.80;99.90;;;;;;5073618;28;20545;-63
2023/12/27 03:53:03;;;;;;;33.95;10.00;;;3.80;99.90;;;;;;5074238;28;20060;-64
2023/12/27 03:55:28;;;;;;;32.10;10.45;;;3.70;99.90;;;;;;5069895;28;20103;-64
2023/12/27 03:57:54;;;;;;;30.85;9.98;;;3.70;99.90;;;;;;5067035;28;20036;-63
2023/12/27 04:00:20;;;;;;;35.63;11.52;;;3.70;99.90;;;;;;5069446;28;20066;-64
2023/12/27 04:02:46;;;;;;;37.35;11.48;;;3.60;99.90;;;;;;5072480;28;20023;-63
2023/12/27 04:05:15;;;;;;;41.42;12.43;;;3.60;99.90;;;;;;5072112;28;20008;-64
2023/12/27 04:07:40;;;;;;;38.15;11.60;;;3.60;99.90;;;;;;5070771;28;20027;-64
2023/12/27 04:10:06;;;;;;;36.65;11.75;;;3.60;99.90;;;;;;5073695;28;20024;-63
2023/12/27 04:12:32;;;;;;;39.08;12.65;;;3.60;99.90;;;;;;5070200;28;20043;-63
2023/12/27 04:14:57;;;;;;;46.83;14.75;;;3.60;99.90;;;;;;5073727;28;20032;-64
2023/12/27 04:17:24;;;;;;;36.28;12.98;;;3.60;99.90;;;;;;5073726;28;20021;-64
2023/12/27 04:19:49;;;;;;;41.38;13.45;;;3.60;99.90;;;;;;5074341;28;20036;-64
2023/12/27 04:22:15;;;;;;;44.63;13.35;;;3.60;99.90;;;;;;5073460;28;20033;-64
2023/12/27 04:24:41;;;;;;;38.38;12.40;;;3.60;99.90;;;;;;5073377;28;20024;-63
2023/12/27 04:27:06;;;;;;;42.13;12.70;;;3.60;99.90;;;;;;5074004;28;20104;-63
2023/12/27 04:29:32;;;;;;;48.35;13.57;;;3.70;99.90;;;;;;5074712;28;20098;-63
2023/12/27 04:31:58;;;;;;;45.65;13.43;;;3.70;99.90;;;;;;5070418;28;20075;-63
2023/12/27 04:34:23;;;;;;;39.03;12.95;;;3.70;99.90;;;;;;5072897;28;20429;-63
2023/12/27 04:36:49;;;;;;;42.13;13.15;;;3.70;99.90;;;;;;5072039;28;20597;-63
2023/12/27 04:39:16;;;;;;;47.70;13.32;;;3.80;99.90;;;;;;5073923;28;20112;-64
2023/12/27 04:41:41;;;;;;;42.97;11.77;;;3.80;99.90;;;;;;5073847;28;20070;-64
2023/12/27 04:44:07;;;;;;;42.03;13.82;;;3.80;99.90;;;;;;5073477;28;20483;-64
2023/12/27 04:46:35;;;;;;;32.47;11.43;;;3.70;99.90;;;;;;5070952;28;20024;-63
2023/12/27 04:49:01;;;;;;;35.78;11.77;;;3.60;99.90;;;;;;5068603;28;20033;-64
2023/12/27 04:51:26;;;;;;;34.63;12.18;;;3.60;99.90;;;;;;5068752;28;20021;-64
2023/12/27 04:53:52;;;;;;;38.05;12.13;;;3.50;99.90;;;;;;5072904;28;20044;-63
2023/12/27 04:56:18;;;;;;;39.22;11.32;;;3.50;99.90;;;;;;5071251;28;20025;-64
2023/12/27 04:58:45;;;;;;;32.55;12.07;;;3.50;99.90;;;;;;5070265;28;20750;-64
2023/12/27 05:01:10;;;;;;;36.60;11.80;;;3.50;99.90;;;;;;5070252;28;20017;-63
2023/12/27 05:03:39;;;;;;;40.42;11.95;;;3.40;99.90;;;;;;5072323;28;20428;-63
2023/12/27 05:06:08;;;;;;;42.78;11.98;;;3.40;99.90;;;;;;5071278;28;20111;-64
2023/12/27 05:08:34;;;;;;;54.28;14.55;;;3.50;99.90;;;;;;5070723;28;20017;-64
2023/12/27 05:11:00;;;;;;;37.40;11.95;;;3.50;99.90;;;;;;5071840;28;20709;-63
2023/12/27 05:13:25;;;;;;;40.22;13.15;;;3.60;99.90;;;;;;5071996;28;20062;-64
2023/12/27 05:15:51;;;;;;;40.97;11.73;;;3.60;99.90;;;;;;5072219;28;20066;-64
2023/12/27 05:18:17;;;;;;;34.95;12.23;;;3.60;99.90;;;;;;5072161;28;20024;-64
2023/12/27 05:20:42;;;;;;;34.90;11.65;;;3.60;99.90;;;;;;5067647;28;20482;-64
2023/12/27 05:23:08;;;;;;;34.53;11.00;;;3.70;99.90;;;;;;5070183;28;20383;-64
2023/12/27 05:25:34;;;;;;;32.70;9.75;;;3.70;99.90;;;;;;5073475;28;20509;-64
2023/12/27 05:28:00;;;;;;;31.15;9.05;;;3.70;99.90;;;;;;5067735;28;20438;-64
2023/12/27 05:30:26;;;;;;;42.65;9.95;;;3.70;99.90;;;;;;5067178;28;20033;-63
2023/12/27 05:32:51;;;;;;;35.22;10.13;;;3.80;99.90;;;;;;5079399;28;20099;-63
2023/12/27 05:35:17;;;;;;;32.05;9.85;;;3.90;99.90;;;;;;5076125;28;20031;-63
2023/12/27 05:37:42;;;;;;;32.30;11.18;;;3.90;99.90;;;;;;5071701;28;20021;-64
2023/12/27 05:40:10;;;;;;;29.15;9.38;;;4.00;99.90;;;;;;5059223;28;20452;-64
2023/12/27 05:42:35;;;;;;;31.88;8.55;;;4.00;99.90;;;;;;5067129;28;20476;-64
2023/12/27 05:45:01;;;;;;;26.42;8.77;;;4.10;99.90;;;;;;5060069;28;20027;-63
2023/12/27 05:47:26;;;;;;;27.67;10.50;;;4.10;99.90;;;;;;5068602;28;20093;-63
2023/12/27 05:49:52;;;;;;;30.10;10.25;;;4.10;99.90;;;;;;5062768;28;20086;-64
2023/12/27 05:52:17;;;;;;;32.20;10.45;;;4.10;99.90;;;;;;5062928;28;20064;-64
2023/12/27 05:54:44;;;;;;;23.40;8.15;;;4.20;99.90;;;;;;5062473;28;20028;-64
2023/12/27 05:57:09;;;;;;;29.85;9.43;;;4.20;99.90;;;;;;5062911;28;20096;-64
2023/12/27 05:59:35;;;;;;;26.30;9.15;;;4.30;99.90;;;;;;5065380;28;20140;-64
2023/12/27 06:02:00;;;;;;;30.58;8.85;;;4.20;99.90;;;;;;5054241;28;20045;-64
2023/12/27 06:04:27;;;;;;;29.85;9.55;;;4.20;99.90;;;;;;5057685;28;20043;-64
2023/12/27 06:06:53;;;;;;;24.70;8.95;;;4.20;99.90;;;;;;5064334;28;20462;-64
2023/12/27 06:09:20;;;;;;;28.15;8.02;;;4.20;99.90;;;;;;5066128;28;20391;-64
2023/12/27 06:11:46;;;;;;;24.73;8.60;;;4.20;99.90;;;;;;5058516;28;20507;-64
2023/12/27 06:14:12;;;;;;;29.05;8.20;;;4.30;99.90;;;;;;5064374;28;20032;-64
2023/12/27 06:16:38;;;;;;;29.23;9.57;;;4.10;99.90;;;;;;5057199;28;20054;-63
2023/12/27 06:19:04;;;;;;;21.08;7.22;;;4.10;99.90;;;;;;5063584;28;20352;-64
2023/12/27 06:21:29;;;;;;;25.58;8.20;;;4.20;99.90;;;;;;5061226;28;20576;-63
2023/12/27 06:23:55;;;;;;;29.00;8.18;;;4.20;99.90;;;;;;5064995;28;20491;-63
2023/12/27 06:26:21;;;;;;;25.73;7.43;;;4.10;99.90;;;;;;5069191;28;20375;-63
2023/12/27 06:28:47;;;;;;;24.65;7.32;;;4.10;99.90;;;;;;5061547;28;20372;-64
2023/12/27 06:31:13;;;;;;;20.75;7.47;;;4.10;99.90;;;;;;5060223;28;20031;-63
2023/12/27 06:33:38;;;;;;;25.55;7.72;;;4.10;99.90;;;;;;5064664;28;20020;-63
2023/12/27 06:36:05;;;;;;;22.85;6.75;;;4.10;99.90;;;;;;5068695;28;20115;-63
2023/12/27 06:38:31;;;;;;;29.63;7.97;;;4.10;99.90;;;;;;5058680;28;20028;-62
2023/12/27 06:40:57;;;;;;;28.10;7.22;;;4.10;99.90;;;;;;5060455;28;20029;-62
2023/12/27 06:43:23;;;;;;;21.77;6.78;;;4.20;99.90;;;;;;5059612;28;20372;-62
2023/12/27 06:45:49;;;;;;;21.30;6.50;;;4.30;99.90;;;;;;5063934;28;20021;-62
2023/12/27 06:48:15;;;;;;;20.45;6.65;;;4.30;99.90;;;;;;5062407;28;20023;-62
2023/12/27 06:50:42;;;;;;;23.80;6.75;;;4.30;99.90;;;;;;5069008;28;20021;-64
2023/12/27 06:53:08;;;;;;;14.57;5.82;;;4.30;99.90;;;;;;5066242;28;20055;-63
2023/12/27 06:55:33;;;;;;;19.77;6.40;;;4.40;99.90;;;;;;5067407;28;20029;-63
2023/12/27 06:57:59;;;;;;;21.15;6.70;;;4.50;99.90;;;;;;5067840;28;20029;-63
2023/12/27 07:00:26;;;;;;;18.27;6.60;;;4.50;99.90;;;;;;5062819;28;20049;-63
2023/12/27 07:02:51;;;;;;;20.67;5.90;;;4.50;99.90;;;;;;5068285;28;20108;-63
2023/12/27 07:05:17;;;;;;;23.75;7.18;;;4.60;99.90;;;;;;5066095;28;20109;-63
2023/12/27 07:07:43;;;;;;;22.02;6.50;;;4.60;99.90;;;;;;5063138;28;20021;-63
2023/12/27 07:10:09;;;;;;;16.60;5.88;;;4.60;99.90;;;;;;5068913;28;20064;-63
2023/12/27 07:12:35;;;;;;;15.57;5.63;;;4.60;99.90;;;;;;5063391;28;20372;-63
2023/12/27 07:15:01;;;;;;;18.52;5.43;;;4.70;99.90;;;;;;5065202;28;20430;-63
2023/12/27 07:17:26;;;;;;;15.88;5.78;;;4.80;99.90;;;;;;5064312;28;20036;-62
2023/12/27 07:19:52;;;;;;;17.52;5.60;;;4.80;99.90;;;;;;5068569;28;20071;-62
2023/12/27 07:22:18;;;;;;;16.55;5.80;;;4.80;99.90;;;;;;5065550;28;20347;-63
2023/12/27 07:24:44;;;;;;;21.67;6.05;;;4.80;99.90;;;;;;5066756;28;20024;-63
2023/12/27 07:27:09;;;;;;;17.77;5.18;;;4.90;99.90;;;;;;5071832;28;20043;-63
2023/12/27 07:29:37;;;;;;;16.63;5.90;;;4.90;99.90;;;;;;5064741;28;20036;-63
2023/12/27 07:32:05;;;;;;;14.95;5.43;;;5.00;99.90;;;;;;5064906;28;20020;-64
2023/12/27 07:34:32;;;;;;;17.48;5.72;;;5.10;99.90;;;;;;5065015;28;20032;-64
2023/12/27 07:36:58;;;;;;;26.08;5.65;;;5.20;99.90;;;;;;5067412;28;20020;-64
2023/12/27 07:39:24;;;;;;;16.10;5.28;;;5.20;99.90;;;;;;5066477;28;20375;-64
2023/12/27 07:41:49;;;;;;;17.67;4.93;;;5.20;99.90;;;;;;5062264;28;20025;-64
2023/12/27 07:44:16;;;;;;;17.20;5.40;;;5.30;99.90;;;;;;5066424;28;20039;-64
2023/12/27 07:46:42;;;;;;;16.92;5.32;;;5.30;99.90;;;;;;5063075;28;20355;-64
2023/12/27 07:49:08;;;;;;;16.83;5.15;;;5.40;99.90;;;;;;5062976;28;20027;-64
2023/12/27 07:51:34;;;;;;;15.30;5.70;;;5.40;99.90;;;;;;5066470;28;20024;-64
2023/12/27 07:53:59;;;;;;;13.77;5.20;;;5.40;99.90;;;;;;5073314;28;20032;-64
2023/12/27 07:56:25;;;;;;;15.13;5.07;;;5.40;99.90;;;;;;5073993;28;20029;-64
2023/12/27 07:58:51;;;;;;;17.75;5.55;;;5.40;99.90;;;;;;5072975;28;20075;-64
2023/12/27 08:01:17;;;;;;;18.05;5.30;;;5.40;99.90;;;;;;5073801;28;20024;-63
2023/12/27 08:03:44;;;;;;;14.20;5.57;;;5.50;99.90;;;;;;5070890;28;20035;-64
2023/12/27 08:06:13;;;;;;;18.65;5.18;;;5.40;99.90;;;;;;5066654;28;20503;-64
2023/12/27 08:08:39;;;;;;;15.85;6.03;;;5.50;99.90;;;;;;5072657;28;20367;-64
2023/12/27 08:11:05;;;;;;;13.77;5.10;;;5.50;99.90;;;;;;5074827;28;20029;-63
2023/12/27 08:13:35;;;;;;;18.60;5.20;;;5.60;99.90;;;;;;5069538;28;20025;-64
2023/12/27 08:16:01;;;;;;;15.82;5.45;;;5.60;99.90;;;;;;5059975;28;20025;-64
2023/12/27 08:18:26;;;;;;;17.27;5.63;;;5.80;99.90;;;;;;5063470;28;20021;-65
2023/12/27 08:20:52;;;;;;;17.50;5.15;;;5.70;99.90;;;;;;5062794;28;20040;-64
2023/12/27 08:23:17;;;;;;;15.85;5.63;;;5.70;99.90;;;;;;5059057;28;20017;-63
2023/12/27 08:25:44;;;;;;;19.10;5.15;;;5.80;99.90;;;;;;5066408;28;20020;-64
2023/12/27 08:28:10;;;;;;;13.85;4.88;;;5.90;99.90;;;;;;5065719;28;20024;-64
2023/12/27 08:30:36;;;;;;;15.60;4.88;;;5.90;99.90;;;;;;5064954;28;20035;-64
2023/12/27 08:33:06;;;;;;;12.52;4.68;;;6.00;99.90;;;;;;5073129;28;20032;-64
2023/12/27 08:35:35;;;;;;;15.05;4.88;;;6.00;99.90;;;;;;5072312;28;20023;-63
2023/12/27 08:38:01;;;;;;;13.73;4.65;;;6.10;99.90;;;;;;5072955;28;20021;-63
2023/12/27 08:40:27;;;;;;;13.90;4.88;;;6.00;99.90;;;;;;5073465;28;20020;-65
2023/12/27 08:42:53;;;;;;;18.02;5.97;;;6.10;99.90;;;;;;5067644;28;20027;-63
2023/12/27 08:45:19;;;;;;;15.45;4.93;;;6.10;99.90;;;;;;5068338;28;20484;-63
2023/12/27 08:47:45;;;;;;;13.18;4.88;;;6.10;99.90;;;;;;5066049;28;20050;-63
2023/12/27 08:50:11;;;;;;;13.95;4.93;;;6.10;99.90;;;;;;5062263;28;20082;-63
2023/12/27 08:52:38;;;;;;;11.90;4.68;;;6.20;99.90;;;;;;5066603;28;20487;-63
2023/12/27 08:55:05;;;;;;;10.48;3.50;;;6.30;99.90;;;;;;5062175;28;20029;-63
2023/12/27 08:57:31;;;;;;;12.23;4.03;;;6.40;99.90;;;;;;5060019;28;20403;-62
2023/12/27 08:59:57;;;;;;;14.30;3.97;;;6.50;99.90;;;;;;5057398;28;20068;-62
2023/12/27 09:02:23;;;;;;;14.45;3.72;;;6.70;99.90;;;;;;5065509;28;20021;-63
2023/12/27 09:04:49;;;;;;;11.80;3.13;;;6.70;99.90;;;;;;5062090;28;20092;-64
2023/12/27 09:07:15;;;;;;;13.68;3.92;;;6.80;99.90;;;;;;5067253;28;20017;-62
2023/12/27 09:09:40;;;;;;;8.95;3.35;;;6.90;99.90;;;;;;5053771;28;20036;-62
2023/12/27 09:12:06;;;;;;;9.52;3.30;;;7.00;99.90;;;;;;5060877;28;20035;-62
2023/12/27 09:14:32;;;;;;;11.43;3.58;;;7.00;99.90;;;;;;5057510;28;20118;-62
2023/12/27 09:16:57;;;;;;;17.88;3.30;;;7.00;99.90;;;;;;5058396;28;20067;-63
2023/12/27 09:19:23;;;;;;;8.45;3.17;;;7.10;99.90;;;;;;5061112;28;20029;-63
2023/12/27 09:21:49;;;;;;;14.68;3.40;;;7.10;99.90;;;;;;5061509;28;20104;-63
2023/12/27 09:24:14;;;;;;;9.43;3.00;;;7.10;99.90;;;;;;5065269;28;20025;-63
2023/12/27 09:26:40;;;;;;;8.70;3.33;;;7.10;99.90;;;;;;5058132;28;20032;-62
2023/12/27 09:29:09;;;;;;;13.65;3.63;;;7.10;99.90;;;;;;5064209;28;20609;-63
2023/12/27 09:31:35;;;;;;;10.15;3.90;;;7.20;99.90;;;;;;5056877;28;20020;-63
2023/12/27 09:34:00;;;;;;;10.32;4.15;;;7.20;99.90;;;;;;5060174;28;20047;-62
2023/12/27 09:36:26;;;;;;;14.32;3.70;;;7.20;99.90;;;;;;5064090;28;20056;-63
2023/12/27 09:38:52;;;;;;;10.23;3.20;;;7.20;99.90;;;;;;5064233;28;20551;-62
2023/12/27 09:41:18;;;;;;;12.38;2.67;;;7.30;99.90;;;;;;5067606;28;20032;-63
2023/12/27 09:43:46;;;;;;;6.90;2.58;;;7.30;99.90;;;;;;5057045;28;20045;-64
2023/12/27 09:46:14;;;;;;;11.32;3.00;;;7.40;99.90;;;;;;5065714;28;20441;-65
2023/12/27 09:48:41;;;;;;;8.25;2.80;;;7.40;99.90;;;;;;5065018;28;20021;-63
2023/12/27 09:51:07;;;;;;;7.78;3.13;;;7.50;99.90;;;;;;5062618;28;20033;-63
2023/12/27 09:53:33;;;;;;;11.40;3.00;;;7.50;99.90;;;;;;5061733;28;20025;-64
2023/12/27 09:56:00;;;;;;;10.52;3.22;;;7.60;99.90;;;;;;5061450;28;20029;-63
2023/12/27 09:58:30;;;;;;;8.50;2.60;;;7.60;99.90;;;;;;5072243;28;20689;-64
2023/12/27 10:01:04;;;;;;;6.47;2.33;;;7.70;99.90;;;;;;5067109;28;20081;-64
2023/12/27 10:03:37;;;;;;;11.48;2.90;;;7.80;99.90;;;;;;5062266;28;20024;-64
2023/12/27 10:06:21;;;;;;;7.97;3.00;;;7.80;99.90;;;;;;5055855;28;20020;-63
2023/12/27 10:08:46;;;;;;;5.88;2.03;;;7.90;99.90;;;;;;5075063;28;20025;-62
2023/12/27 10:11:13;;;;;;;8.10;2.13;;;7.90;99.90;;;;;;5067207;28;20070;-63
2023/12/27 10:13:41;;;;;;;9.57;2.75;;;8.00;99.90;;;;;;5061704;28;20050;-63
2023/12/27 10:16:07;;;;;;;6.70;1.95;;;8.00;99.90;;;;;;5057165;28;20051;-64
2023/12/27 10:18:33;;;;;;;8.93;2.55;;;8.00;99.90;;;;;;5063918;28;20020;-64
2023/12/27 10:20:59;;;;;;;6.85;2.35;;;8.00;99.90;;;;;;5060397;28;20029;-63
2023/12/27 10:23:24;;;;;;;7.97;2.88;;;8.00;99.90;;;;;;5072498;28;20421;-63
2023/12/27 10:25:51;;;;;;;6.07;2.10;;;8.00;99.90;;;;;;5076473;28;20041;-63
2023/12/27 10:28:23;;;;;;;6.78;2.30;;;8.00;99.90;;;;;;5063543;28;20031;-63
2023/12/27 10:30:51;;;;;;;5.68;2.10;;;8.00;99.90;;;;;;5058839;28;20056;-62
2023/12/27 10:33:17;;;;;;;4.50;1.55;;;8.10;99.90;;;;;;5061037;28;20024;-63
2023/12/27 10:35:43;;;;;;;8.93;2.13;;;8.10;99.90;;;;;;5064663;28;20673;-63
2023/12/27 10:38:08;;;;;;;6.43;2.15;;;8.00;99.90;;;;;;5071902;28;20040;-62
2023/12/27 10:40:35;;;;;;;6.93;2.38;;;8.10;99.90;;;;;;5070330;28;20017;-63
2023/12/27 10:43:02;;;;;;;6.55;2.13;;;8.10;99.90;;;;;;5073261;28;20052;-63
2023/12/27 10:45:28;;;;;;;6.47;2.03;;;8.10;99.90;;;;;;5073800;28;20532;-63
2023/12/27 10:48:01;;;;;;;7.32;1.90;;;8.00;99.90;;;;;;5074605;28;20025;-62
2023/12/27 10:50:28;;;;;;;6.63;2.25;;;8.10;99.90;;;;;;5064151;28;20032;-62
2023/12/27 10:53:06;;;;;;;5.47;1.88;;;8.20;99.90;;;;;;5059847;28;20498;-63
2023/12/27 10:55:33;;;;;;;5.65;1.88;;;8.20;99.90;;;;;;5074205;28;20023;-62
2023/12/27 10:58:00;;;;;;;4.35;1.63;;;8.20;99.90;;;;;;5073798;28;20028;-63
2023/12/27 11:00:27;;;;;;;5.68;1.90;;;8.30;99.90;;;;;;5089341;28;20960;-63
2023/12/27 11:02:54;;;;;;;6.97;1.92;;;8.30;99.90;;;;;;5058279;28;20391;-63
2023/12/27 11:05:22;;;;;;;5.57;1.92;;;8.20;99.90;;;;;;5063732;28;20028;-64
2023/12/27 11:07:49;;;;;;;5.80;2.15;;;8.30;99.90;;;;;;5060407;28;20056;-63
2023/12/27 11:10:16;;;;;;;5.40;1.80;;;8.30;99.90;;;;;;5067431;28;20048;-64
2023/12/27 11:12:47;;;;;;;6.38;2.33;;;8.40;99.90;;;;;;5065266;28;20041;-63
2023/12/27 11:15:19;;;;;;;;;;;8.30;99.90;;;;;;5066706;28;20066;-64
2023/12/27 11:17:47;;;;;;;7.32;2.05;;;8.30;99.90;;;;;;5067654;28;19991;-63
2023/12/27 11:20:14;;;;;;;5.22;1.83;;;8.30;99.90;;;;;;5067776;28;20024;-64
2023/12/27 11:22:43;;;;;;;7.68;2.33;;;8.30;99.90;;;;;;5067327;28;20023;-63
2023/12/27 11:25:09;;;;;;;5.20;1.60;;;8.30;99.90;;;;;;5067085;28;20028;-64
2023/12/27 11:27:36;;;;;;;6.28;2.28;;;8.30;99.90;;;;;;5069495;28;20028;-63
2023/12/27 11:30:02;;;;;;;6.20;2.17;;;8.30;99.90;;;;;;5072069;28;20039;-63
2023/12/27 11:32:30;;;;;;;6.32;2.17;;;8.30;99.90;;;;;;5070465;28;20031;-63
2023/12/27 11:34:56;;;;;;;7.05;2.35;;;8.30;99.90;;;;;;5070421;28;20029;-64
2023/12/27 11:37:22;;;;;;;7.28;2.47;;;8.30;99.90;;;;;;5059044;28;20707;-64
2023/12/27 11:39:52;;;;;;;6.32;2.30;;;8.30;99.90;;;;;;5063144;28;20043;-64
2023/12/27 11:42:18;;;;;;;6.23;2.53;;;8.30;99.90;;;;;;5060834;28;20052;-64
2023/12/27 11:44:53;;;;;;;8.30;2.65;;;8.40;99.90;;;;;;5063566;28;20267;-67
2023/12/27 11:47:22;;;;;;;8.40;2.70;;;8.40;99.90;;;;;;5063894;28;20533;-64
2023/12/27 11:50:13;;;;;;;6.45;2.30;;;8.50;99.90;;;;;;5063575;28;20025;-63
2023/12/27 11:52:47;;;;;;;6.38;2.50;;;8.50;99.90;;;;;;5061174;28;20033;-63
2023/12/27 11:55:18;;;;;;;5.88;2.17;;;8.50;99.90;;;;;;5059827;28;20537;-64
2023/12/27 11:57:44;;;;;;;7.30;2.38;;;8.50;99.90;;;;;;5065255;28;20066;-64
2023/12/27 12:00:22;;;;;;;5.88;2.30;;;8.60;99.90;;;;;;5058299;28;20048;-64
2023/12/27 12:02:57;;;;;;;8.30;2.22;;;8.60;99.90;;;;;;5062169;28;20021;-64
2023/12/27 12:06:02;;;;;;;7.82;2.15;;;8.60;99.90;;;;;;5061258;28;20096;-64
2023/12/27 12:08:35;;;;;;;6.30;2.30;;;8.60;99.90;;;;;;5061688;28;20021;-64
2023/12/27 12:11:09;;;;;;;6.65;2.00;;;8.60;99.90;;;;;;5067788;28;20029;-64
2023/12/27 12:13:39;;;;;;;4.93;1.80;;;8.70;99.90;;;;;;5069589;28;20123;-64
2023/12/27 12:16:06;;;;;;;4.72;1.90;;;8.70;99.90;;;;;;5068804;28;20115;-64
2023/12/27 12:18:34;;;;;;;7.47;1.88;;;8.70;99.90;;;;;;5068346;28;20056;-65
2023/12/27 12:21:00;;;;;;;6.38;1.85;;;8.80;99.90;;;;;;5056676;28;20063;-64
2023/12/27 12:23:30;;;;;;;6.00;1.83;;;8.80;99.90;;;;;;5051101;28;20060;-64
2023/12/27 12:26:00;;;;;;;6.15;1.92;;;8.80;99.90;;;;;;5053234;28;20032;-64
2023/12/27 12:28:27;;;;;;;5.00;1.70;;;8.80;99.90;;;;;;5056003;28;20094;-64
2023/12/27 12:30:58;;;;;;;5.90;1.85;;;8.90;99.90;;;;;;5056880;28;20613;-63
2023/12/27 12:33:25;;;;;;;8.68;2.10;;;8.90;99.90;;;;;;5056441;28;20128;-64
2023/12/27 12:35:52;;;;;;;4.95;1.63;;;8.90;99.90;;;;;;5053984;28;20054;-63
2023/12/27 12:38:18;;;;;;;5.50;1.80;;;8.90;99.90;;;;;;5055934;28;20021;-63
2023/12/27 12:40:47;;;;;;;7.43;1.67;;;8.90;99.90;;;;;;5062874;28;20108;-63
2023/12/27 12:43:17;;;;;;;5.43;1.60;;;8.90;99.90;;;;;;5058345;28;20116;-63
2023/12/27 12:45:43;;;;;;;3.90;1.50;;;9.00;99.90;;;;;;5059909;28;20028;-63